createdAt,value
2018-11-22T00:00:32.389Z,0
2018-11-22T00:03:31.567Z,0
2018-11-22T00:06:30.859Z,0
2018-11-22T00:09:31.365Z,0
2018-11-22T00:12:31.591Z,0
2018-11-22T00:15:31.644Z,0
2018-11-22T00:18:30.780Z,0
2018-11-22T00:21:31.015Z,0
2018-11-22T00:24:31.371Z,0
2018-11-22T00:27:31.637Z,0
2018-11-22T00:30:32.340Z,0
2018-11-22T00:33:31.569Z,0
2018-11-22T00:36:31.247Z,0
2018-11-22T00:39:31.482Z,0
2018-11-22T00:42:31.418Z,0
2018-11-22T00:45:33.053Z,0
2018-11-22T00:48:31.541Z,0
2018-11-22T00:51:31.804Z,0
2018-11-22T00:54:31.232Z,0
2018-11-22T00:57:31.455Z,0
2018-11-22T01:00:32.406Z,0
2018-11-22T01:03:31.771Z,0
2018-11-22T01:06:31.268Z,0
2018-11-22T01:09:30.933Z,0
2018-11-22T01:12:31.381Z,0
2018-11-22T01:15:30.822Z,0
2018-11-22T01:18:31.283Z,0
2018-11-22T01:21:31.532Z,0
2018-11-22T01:24:31.825Z,0
2018-11-22T01:27:31.019Z,0
2018-11-22T01:30:32.204Z,0
2018-11-22T01:33:31.197Z,0
2018-11-22T01:36:31.557Z,0
2018-11-22T01:39:30.452Z,0
2018-11-22T01:42:31.341Z,0
2018-11-22T01:45:32.348Z,0
2018-11-22T01:48:31.353Z,0
2018-11-22T01:51:31.342Z,0
2018-11-22T01:54:31.682Z,0
2018-11-22T01:57:30.562Z,0
2018-11-22T02:00:31.647Z,0
2018-11-22T02:03:30.731Z,0
2018-11-22T02:06:30.876Z,0
2018-11-22T02:09:30.902Z,0
2018-11-22T02:12:30.893Z,0
2018-11-22T02:15:32.365Z,0
2018-11-22T02:18:30.391Z,0
2018-11-22T02:21:31.275Z,0
2018-11-22T02:24:31.297Z,0
2018-11-22T02:27:31.206Z,0
2018-11-22T02:30:32.312Z,0
2018-11-22T02:33:31.381Z,0
2018-11-22T02:36:31.437Z,0
2018-11-22T02:39:31.412Z,0
2018-11-22T02:42:31.404Z,0
2018-11-22T02:45:32.966Z,0
2018-11-22T02:48:30.908Z,0
2018-11-22T02:51:30.673Z,0
2018-11-22T02:54:30.618Z,0
2018-11-22T02:57:30.634Z,0
2018-11-22T03:00:34.669Z,0
2018-11-22T03:03:30.554Z,0
2018-11-22T03:06:30.516Z,0
2018-11-22T03:09:31.490Z,0
2018-11-22T03:12:30.640Z,0
2018-11-22T03:15:31.017Z,0
2018-11-22T03:18:31.223Z,0
2018-11-22T03:21:31.202Z,0
2018-11-22T03:24:31.230Z,0
2018-11-22T03:27:31.008Z,0
2018-11-22T03:30:31.464Z,0
2018-11-22T03:33:30.529Z,0
2018-11-22T03:36:30.786Z,0
2018-11-22T03:39:30.941Z,0
2018-11-22T03:42:31.101Z,0
2018-11-22T03:45:32.047Z,0
2018-11-22T03:48:31.324Z,0
2018-11-22T03:51:31.574Z,0
2018-11-22T03:54:30.641Z,0
2018-11-22T03:57:30.913Z,0
2018-11-22T04:00:32.572Z,0
2018-11-22T04:03:30.605Z,0
2018-11-22T04:06:30.542Z,0
2018-11-22T04:09:30.655Z,0
2018-11-22T04:12:30.658Z,0
2018-11-22T04:15:30.897Z,0
2018-11-22T04:18:30.985Z,0
2018-11-22T04:21:30.865Z,0
2018-11-22T04:24:31.040Z,0
2018-11-22T04:27:31.111Z,0
2018-11-22T04:30:33.741Z,0
2018-11-22T04:33:30.661Z,0
2018-11-22T04:36:31.121Z,0
2018-11-22T04:39:31.315Z,0
2018-11-22T04:42:31.255Z,0
2018-11-22T04:45:32.076Z,0
2018-11-22T04:48:31.225Z,0
2018-11-22T04:51:31.283Z,0
2018-11-22T04:54:31.446Z,0
2018-11-22T04:57:31.809Z,0
2018-11-22T05:00:32.137Z,0
2018-11-22T05:03:31.174Z,0
2018-11-22T05:06:31.666Z,0
2018-11-22T05:09:30.852Z,0
2018-11-22T05:12:30.782Z,0
2018-11-22T05:15:32.708Z,0
2018-11-22T05:18:30.777Z,0
2018-11-22T05:21:31.007Z,0
2018-11-22T05:24:31.925Z,0
2018-11-22T05:27:31.282Z,0
2018-11-22T05:30:33.434Z,0
2018-11-22T05:33:31.914Z,0
2018-11-22T05:36:31.444Z,0
2018-11-22T05:39:31.424Z,0
2018-11-22T05:42:31.517Z,0
2018-11-22T05:45:32.088Z,0
2018-11-22T05:48:31.198Z,0
2018-11-22T05:51:31.130Z,0
2018-11-22T05:54:31.174Z,0
2018-11-22T05:57:31.238Z,0
2018-11-22T06:00:34.105Z,0
2018-11-22T06:03:31.375Z,0
2018-11-22T06:06:31.402Z,0
2018-11-22T06:09:31.537Z,0
2018-11-22T06:12:31.295Z,0
2018-11-22T06:15:31.633Z,0
2018-11-22T06:18:31.012Z,1
2018-11-22T06:21:31.157Z,1
2018-11-22T06:24:31.725Z,2
2018-11-22T06:27:30.849Z,4
2018-11-22T06:30:33.573Z,7
2018-11-22T06:33:30.736Z,11
2018-11-22T06:36:30.976Z,18
2018-11-22T06:39:31.098Z,29
2018-11-22T06:42:37.725Z,43
2018-11-22T06:45:32.516Z,56
2018-11-22T06:48:30.755Z,56
2018-11-22T06:51:31.062Z,68
2018-11-22T06:54:31.280Z,97
2018-11-22T06:57:31.349Z,104
2018-11-22T07:00:32.447Z,155
2018-11-22T07:03:30.835Z,158
2018-11-22T07:06:31.138Z,185
2018-11-22T07:09:30.993Z,238
2018-11-22T07:12:31.125Z,275
2018-11-22T07:15:31.761Z,328
2018-11-22T07:18:31.106Z,421
2018-11-22T07:21:30.537Z,498
2018-11-22T07:24:30.636Z,528
2018-11-22T07:27:30.581Z,606
2018-11-22T07:30:33.705Z,626
2018-11-22T07:33:38.011Z,758
2018-11-22T07:36:31.485Z,825
2018-11-22T07:39:30.408Z,740
2018-11-22T07:42:31.502Z,762
2018-11-22T07:45:32.432Z,1039
2018-11-22T07:48:31.532Z,972
2018-11-22T07:51:30.588Z,819
2018-11-22T07:54:30.726Z,833
2018-11-22T07:57:30.752Z,958
2018-11-22T08:00:34.810Z,865
2018-11-22T08:03:31.428Z,1205
2018-11-22T08:06:31.571Z,1606
2018-11-22T08:09:30.560Z,1125
2018-11-22T08:12:30.841Z,1357
2018-11-22T08:15:32.730Z,1612
2018-11-22T08:18:31.287Z,1363
2018-11-22T08:21:38.216Z,1649
2018-11-22T08:24:30.621Z,1719
2018-11-22T08:27:30.689Z,1910
2018-11-22T08:30:31.090Z,1972
2018-11-22T08:33:31.114Z,1809
2018-11-22T08:36:31.219Z,1890
2018-11-22T08:39:31.441Z,1680
2018-11-22T08:42:31.483Z,2025
2018-11-22T08:45:31.963Z,2274
2018-11-22T08:48:31.232Z,2162
2018-11-22T08:51:31.204Z,1680
2018-11-22T08:54:31.836Z,1605
2018-11-22T08:57:30.997Z,1754
2018-11-22T09:00:32.267Z,1880
2018-11-22T09:03:32.629Z,1773
2018-11-22T09:06:30.961Z,2018
2018-11-22T09:09:31.071Z,2072
2018-11-22T09:12:31.069Z,1942
2018-11-22T09:15:33.914Z,1678
2018-11-22T09:18:31.088Z,2004
2018-11-22T09:21:31.762Z,1826
2018-11-22T09:24:30.914Z,1658
2018-11-22T09:27:31.160Z,1847
2018-11-22T09:30:34.118Z,2074
2018-11-22T09:33:31.370Z,2107
2018-11-22T09:36:31.668Z,2090
2018-11-22T09:39:31.095Z,2177
2018-11-22T09:42:31.346Z,2311
2018-11-22T09:45:32.935Z,2393
2018-11-22T09:48:31.177Z,2530
2018-11-22T09:51:31.427Z,2572
2018-11-22T09:54:31.589Z,2580
2018-11-22T09:57:30.591Z,2933
2018-11-22T10:00:30.669Z,3229
2018-11-22T10:03:31.037Z,3297
2018-11-22T10:06:31.149Z,3314
2018-11-22T10:09:31.894Z,3442
2018-11-22T10:12:31.335Z,3608
2018-11-22T10:15:33.543Z,3792
2018-11-22T10:18:31.015Z,4137
2018-11-22T10:21:31.145Z,4082
2018-11-22T10:24:31.461Z,4164
2018-11-22T10:27:31.590Z,3979
2018-11-22T10:30:30.746Z,3877
2018-11-22T10:33:30.864Z,4205
2018-11-22T10:36:31.138Z,4088
2018-11-22T10:39:22.091Z,4397
2018-11-22T10:42:31.434Z,4357
2018-11-22T10:45:32.817Z,4667
2018-11-22T10:48:31.077Z,5212
2018-11-22T10:51:31.205Z,5560
2018-11-22T10:54:31.285Z,5748
2018-11-22T10:57:31.410Z,6253
2018-11-22T11:02:39.202Z,5673
2018-11-22T11:05:43.557Z,5844
2018-11-22T11:06:56.557Z,5687
2018-11-22T11:09:30.507Z,5032
2018-11-22T11:12:30.536Z,4967
2018-11-22T11:15:30.796Z,5811
2018-11-22T11:18:30.992Z,5282
2018-11-22T11:21:31.179Z,5372
2018-11-22T11:24:32.211Z,4707
2018-11-22T11:27:31.752Z,4617
2018-11-22T11:30:31.130Z,5648
2018-11-22T11:33:31.243Z,6054
2018-11-22T11:36:33.750Z,5698
2018-11-22T11:39:31.012Z,5711
2018-11-22T11:42:31.312Z,5793
2018-11-22T11:45:32.308Z,6096
2018-11-22T11:48:31.659Z,5952
2018-11-22T11:51:30.787Z,6370
2018-11-22T11:54:31.079Z,5507
2018-11-22T11:57:31.533Z,5623
2018-11-22T12:00:34.549Z,5288
2018-11-22T12:03:30.707Z,5323
2018-11-22T12:06:31.115Z,5310
2018-11-22T12:09:31.012Z,5208
2018-11-22T12:12:31.386Z,5072
2018-11-22T12:15:32.382Z,5036
2018-11-22T12:18:36.609Z,4996
2018-11-22T12:21:31.100Z,5098
2018-11-22T12:24:31.525Z,4483
2018-11-22T12:27:30.829Z,4692
2018-11-22T12:30:33.503Z,4328
2018-11-22T12:33:45.619Z,4613
2018-11-22T12:37:13.006Z,4267
2018-11-22T12:39:31.091Z,4801
2018-11-22T12:42:31.220Z,4612
2018-11-22T12:45:31.862Z,4557
2018-11-22T12:48:31.445Z,4537
2018-11-22T12:51:31.056Z,4548
2018-11-22T12:54:31.176Z,4275
2018-11-22T12:57:31.868Z,4038
2018-11-22T13:00:30.933Z,4362
2018-11-22T13:03:31.158Z,4573
2018-11-22T13:06:31.178Z,3808
2018-11-22T13:09:31.288Z,3629
2018-11-22T13:12:31.546Z,3413
2018-11-22T13:15:30.751Z,3787
2018-11-22T13:18:30.963Z,3181
2018-11-22T13:21:31.116Z,3058
2018-11-22T13:24:31.179Z,2692
2018-11-22T13:27:31.481Z,2918
2018-11-22T13:30:32.171Z,2988
2018-11-22T13:33:31.458Z,2851
2018-11-22T13:36:30.667Z,2760
2018-11-22T13:39:30.665Z,2826
2018-11-22T13:42:30.762Z,2543
2018-11-22T13:45:32.396Z,2196
2018-11-22T13:48:31.522Z,2604
2018-11-22T13:51:30.582Z,2122
2018-11-22T13:54:30.611Z,2030
2018-11-22T13:57:30.845Z,2077
2018-11-22T14:00:33.037Z,1981
2018-11-22T14:03:31.243Z,1934
2018-11-22T14:06:31.365Z,2117
2018-11-22T14:09:31.596Z,1804
2018-11-22T14:12:30.716Z,1589
2018-11-22T14:15:32.211Z,1827
2018-11-22T14:18:31.480Z,1587
2018-11-22T14:21:30.513Z,1592
2018-11-22T14:24:30.588Z,1468
2018-11-22T14:27:30.732Z,1386
2018-11-22T14:30:32.689Z,1318
2018-11-22T14:33:30.977Z,1212
2018-11-22T14:36:31.102Z,1172
2018-11-22T14:39:31.306Z,1084
2018-11-22T14:42:31.299Z,933
2018-11-22T14:45:32.121Z,1018
2018-11-22T14:48:31.274Z,857
2018-11-22T14:51:35.476Z,749
2018-11-22T14:54:30.648Z,702
2018-11-22T14:57:30.779Z,605
2018-11-22T15:00:31.100Z,596
2018-11-22T15:03:31.112Z,460
2018-11-22T15:06:31.346Z,468
2018-11-22T15:09:31.624Z,399
2018-11-22T15:12:30.702Z,383
2018-11-22T15:15:32.005Z,410
2018-11-22T15:18:31.118Z,417
2018-11-22T15:21:31.291Z,368
2018-11-22T15:24:31.257Z,318
2018-11-22T15:27:31.318Z,276
2018-11-22T15:30:32.769Z,232
2018-11-22T15:33:31.079Z,196
2018-11-22T15:36:31.275Z,158
2018-11-22T15:39:31.492Z,124
2018-11-22T15:42:31.375Z,95
2018-11-22T15:45:38.108Z,69
2018-11-22T15:48:31.123Z,48
2018-11-22T15:51:31.198Z,32
2018-11-22T15:54:31.531Z,21
2018-11-22T15:57:30.575Z,12
2018-11-22T16:00:32.217Z,8
2018-11-22T16:03:31.463Z,4
2018-11-22T16:06:31.549Z,2
2018-11-22T16:09:30.737Z,1
2018-11-22T16:12:30.916Z,1
2018-11-22T16:15:41.747Z,0
2018-11-22T16:18:31.045Z,0
2018-11-22T16:21:31.138Z,0
2018-11-22T16:24:31.363Z,0
2018-11-22T16:27:31.648Z,0
2018-11-22T16:30:32.107Z,0
2018-11-22T16:33:31.148Z,0
2018-11-22T16:36:31.257Z,0
2018-11-22T16:39:31.575Z,0
2018-11-22T16:42:30.887Z,0
2018-11-22T16:45:32.346Z,0
2018-11-22T16:48:31.456Z,0
2018-11-22T16:51:31.600Z,0
2018-11-22T16:54:30.804Z,0
2018-11-22T16:57:31.075Z,0
2018-11-22T17:00:33.597Z,0
2018-11-22T17:03:30.764Z,0
2018-11-22T17:06:30.881Z,0
2018-11-22T17:09:30.996Z,0
2018-11-22T17:12:30.931Z,0
2018-11-22T17:15:33.846Z,0
2018-11-22T17:18:31.105Z,0
2018-11-22T17:21:31.202Z,0
2018-11-22T17:24:31.217Z,0
2018-11-22T17:27:31.278Z,0
2018-11-22T17:30:33.261Z,0
2018-11-22T17:33:31.451Z,0
2018-11-22T17:36:31.286Z,0
2018-11-22T17:39:34.080Z,0
2018-11-22T17:42:31.327Z,0
2018-11-22T17:45:34.537Z,0
2018-11-22T17:48:30.704Z,0
2018-11-22T17:51:30.982Z,0
2018-11-22T17:54:31.040Z,0
2018-11-22T17:57:31.039Z,0
2018-11-22T18:00:32.565Z,0
2018-11-22T18:03:30.840Z,0
2018-11-22T18:06:30.847Z,0
2018-11-22T18:09:31.077Z,0
2018-11-22T18:12:31.136Z,0
2018-11-22T18:15:32.586Z,0
2018-11-22T18:18:31.429Z,0
2018-11-22T18:21:31.441Z,0
2018-11-22T18:24:31.624Z,0
2018-11-22T18:27:30.758Z,0
2018-11-22T18:30:32.504Z,0
2018-11-22T18:33:30.795Z,0
2018-11-22T18:36:31.011Z,0
2018-11-22T18:39:31.116Z,0
2018-11-22T18:42:31.435Z,0
2018-11-22T18:45:48.253Z,0
2018-11-22T18:48:31.463Z,0
2018-11-22T18:51:30.546Z,0
2018-11-22T18:54:30.712Z,0
2018-11-22T18:57:30.740Z,0
2018-11-22T19:00:33.793Z,0
2018-11-22T19:03:30.984Z,0
2018-11-22T19:06:31.049Z,0
2018-11-22T19:09:31.205Z,0
2018-11-22T19:12:31.432Z,0
2018-11-22T19:15:32.086Z,0
2018-11-22T19:18:31.277Z,0
2018-11-22T19:21:31.407Z,0
2018-11-22T19:24:31.722Z,0
2018-11-22T19:27:30.753Z,0
2018-11-22T19:30:39.775Z,0
2018-11-22T19:33:30.969Z,0
2018-11-22T19:36:31.142Z,0
2018-11-22T19:39:31.232Z,0
2018-11-22T19:42:31.639Z,0
2018-11-22T19:45:32.931Z,0
2018-11-22T19:48:31.223Z,0
2018-11-22T19:51:31.464Z,0
2018-11-22T19:54:30.685Z,0
2018-11-22T19:57:30.988Z,0
2018-11-22T20:00:32.242Z,0
2018-11-22T20:03:31.391Z,0
2018-11-22T20:06:31.800Z,0
2018-11-22T20:09:31.260Z,0
2018-11-22T20:12:31.408Z,0
2018-11-22T20:15:31.832Z,0
2018-11-22T20:18:31.254Z,0
2018-11-22T20:21:31.767Z,0
2018-11-22T20:24:31.006Z,0
2018-11-22T20:27:32.020Z,0
2018-11-22T20:30:40.371Z,0
2018-11-22T20:33:30.835Z,0
2018-11-22T20:36:30.998Z,0
2018-11-22T20:39:31.459Z,0
2018-11-22T20:42:30.747Z,0
2018-11-22T20:45:31.937Z,0
2018-11-22T20:48:31.577Z,0
2018-11-22T20:51:30.953Z,0
2018-11-22T20:54:30.978Z,0
2018-11-22T20:57:31.207Z,0
2018-11-22T21:00:32.802Z,0
2018-11-22T21:03:31.240Z,0
2018-11-22T21:06:32.689Z,0
2018-11-22T21:09:30.847Z,0
2018-11-22T21:12:30.959Z,0
2018-11-22T21:15:33.511Z,0
2018-11-22T21:18:30.624Z,0
2018-11-22T21:21:30.738Z,0
2018-11-22T21:24:30.924Z,0
2018-11-22T21:27:31.332Z,0
2018-11-22T21:30:32.926Z,0
2018-11-22T21:33:30.838Z,0
2018-11-22T21:36:31.032Z,0
2018-11-22T21:42:31.543Z,0
2018-11-22T21:45:32.063Z,0
2018-11-22T21:48:32.501Z,0
2018-11-22T21:51:39.258Z,0
2018-11-22T21:54:31.319Z,0
2018-11-22T21:57:31.654Z,0
2018-11-22T22:00:35.397Z,0
2018-11-22T22:03:36.097Z,0
2018-11-22T22:06:32.242Z,0
2018-11-22T22:09:30.797Z,0
2018-11-22T22:12:31.182Z,0
2018-11-22T22:15:33.455Z,0
2018-11-22T22:18:37.577Z,0
2018-11-22T22:21:31.886Z,0
2018-11-22T22:24:32.177Z,0
2018-11-22T22:27:32.695Z,0
2018-11-22T22:30:39.562Z,0
2018-11-22T22:33:31.057Z,0
2018-11-22T22:36:31.723Z,0
2018-11-22T22:39:30.940Z,0
2018-11-22T22:42:31.339Z,0
2018-11-22T22:45:32.464Z,0
2018-11-22T22:48:32.409Z,0
2018-11-22T22:51:36.058Z,0
2018-11-22T22:54:31.419Z,0
2018-11-22T22:57:30.924Z,0
2018-11-22T23:01:07.238Z,0
2018-11-22T23:03:30.548Z,0
2018-11-22T23:06:30.864Z,0
2018-11-22T23:09:32.385Z,0
2018-11-22T23:12:41.975Z,0
2018-11-22T23:16:55.448Z,0
2018-11-22T23:18:30.583Z,0
2018-11-22T23:21:30.871Z,0
2018-11-22T23:24:31.358Z,0
2018-11-22T23:27:31.615Z,0
2018-11-22T23:30:35.587Z,0
2018-11-22T23:33:31.216Z,0
2018-11-22T23:36:30.697Z,0
2018-11-22T23:39:30.911Z,0
2018-11-22T23:42:32.748Z,0
2018-11-22T23:45:32.386Z,0
2018-11-22T23:48:31.551Z,0
2018-11-22T23:51:30.820Z,0
2018-11-22T23:54:32.125Z,0
2018-11-22T23:57:32.601Z,0
